createdAt,value
2022-11-04T00:01:09.670Z,11.05
2022-11-04T00:03:39.663Z,8.63
2022-11-04T00:06:10.136Z,10.20
2022-11-04T00:08:40.148Z,13.85
2022-11-04T00:11:28.306Z,13.00
2022-11-04T00:13:58.328Z,14.93
2022-11-04T00:16:46.474Z,18.38
2022-11-04T00:19:16.447Z,15.23
2022-11-04T00:22:05.027Z,15.40
2022-11-04T00:24:44.376Z,16.33
2022-11-04T00:27:34.103Z,16.02
2022-11-04T00:30:04.159Z,16.48
2022-11-04T00:32:52.722Z,17.25
2022-11-04T00:35:22.981Z,17.27
2022-11-04T00:37:53.144Z,21.35
2022-11-04T00:40:24.019Z,17.85
2022-11-04T00:42:54.028Z,16.50
2022-11-04T00:45:23.996Z,19.10
2022-11-04T00:47:54.006Z,17.63
2022-11-04T00:50:25.191Z,17.88
2022-11-04T00:53:00.344Z,14.90
2022-11-04T00:55:30.484Z,17.60
2022-11-04T00:58:00.677Z,13.23
2022-11-04T01:00:31.329Z,14.07
2022-11-04T01:03:02.127Z,16.50
2022-11-04T01:05:32.752Z,14.25
2022-11-04T01:08:02.762Z,16.08
2022-11-04T01:10:32.919Z,15.00
2022-11-04T01:13:03.007Z,13.05
2022-11-04T01:15:32.983Z,14.70
2022-11-04T01:18:02.900Z,14.35
2022-11-04T01:20:32.915Z,15.63
2022-11-04T01:23:02.834Z,12.88
2022-11-04T01:25:32.750Z,12.35
2022-11-04T01:28:02.682Z,14.65
2022-11-04T01:30:32.656Z,14.18
2022-11-04T01:33:02.699Z,16.42
2022-11-04T01:35:33.387Z,16.00
2022-11-04T01:38:03.293Z,13.40
2022-11-04T01:40:33.262Z,13.95
2022-11-04T01:43:03.234Z,14.98
2022-11-04T01:45:33.223Z,16.05
2022-11-04T01:48:07.498Z,15.63
2022-11-04T01:50:37.901Z,16.30
2022-11-04T01:53:09.657Z,16.27
2022-11-04T01:55:42.485Z,20.02
2022-11-04T01:58:13.757Z,21.58
2022-11-04T02:00:47.842Z,24.42
2022-11-04T02:03:17.929Z,22.00
2022-11-04T02:05:48.126Z,19.38
2022-11-04T02:08:18.129Z,18.98
2022-11-04T02:10:52.226Z,18.85
2022-11-04T02:13:22.388Z,14.43
2022-11-04T02:15:52.449Z,16.67
2022-11-04T02:18:25.883Z,15.18
2022-11-04T02:21:08.356Z,16.17
2022-11-04T02:23:47.177Z,14.05
2022-11-04T02:26:27.373Z,14.52
2022-11-04T02:29:12.703Z,16.70
2022-11-04T02:31:45.863Z,14.23
2022-11-04T02:34:21.300Z,16.45
2022-11-04T02:37:22.300Z,14.77
2022-11-04T02:40:00.250Z,15.20
2022-11-04T02:42:31.554Z,15.15
2022-11-04T02:45:20.143Z,15.30
2022-11-04T02:47:54.561Z,13.55
2022-11-04T02:50:24.715Z,13.77
2022-11-04T02:53:05.570Z,13.57
2022-11-04T02:55:40.805Z,12.52
2022-11-04T02:58:16.800Z,12.32
2022-11-04T03:00:46.906Z,11.45
2022-11-04T03:03:21.978Z,11.65
2022-11-04T03:05:52.578Z,11.75
2022-11-04T03:08:24.254Z,11.40
2022-11-04T03:10:55.666Z,11.90
2022-11-04T03:13:36.663Z,13.43
2022-11-04T03:16:11.128Z,14.73
2022-11-04T03:18:45.974Z,14.60
2022-11-04T03:21:16.239Z,14.20
2022-11-04T03:23:46.385Z,16.35
2022-11-04T03:26:19.556Z,17.27
2022-11-04T03:28:59.830Z,17.63
2022-11-04T03:31:32.580Z,16.80
2022-11-04T03:34:03.209Z,18.45
2022-11-04T03:36:33.295Z,16.30
2022-11-04T03:39:03.391Z,16.80
2022-11-04T03:41:45.308Z,17.20
2022-11-04T03:44:18.346Z,14.38
2022-11-04T03:46:48.566Z,16.23
2022-11-04T03:49:21.048Z,17.27
2022-11-04T03:51:51.364Z,20.02
2022-11-04T03:54:21.708Z,20.83
2022-11-04T03:56:55.256Z,20.50
2022-11-04T03:59:31.158Z,22.15
2022-11-04T04:02:07.197Z,28.67
2022-11-04T04:04:37.519Z,31.05
2022-11-04T04:07:27.551Z,26.90
2022-11-04T04:10:36.996Z,25.23
2022-11-04T04:13:26.878Z,21.85
2022-11-04T04:16:01.923Z,25.45
2022-11-04T04:18:33.549Z,24.95
2022-11-04T04:21:04.425Z,24.02
2022-11-04T04:23:52.668Z,21.05
2022-11-04T04:26:41.206Z,24.48
2022-11-04T04:29:11.437Z,24.30
2022-11-04T04:31:59.005Z,22.05
2022-11-04T04:34:30.392Z,22.35
2022-11-04T04:37:09.578Z,22.70
2022-11-04T04:40:00.263Z,23.55
2022-11-04T04:42:54.714Z,19.50
2022-11-04T04:45:26.771Z,20.17
2022-11-04T04:47:56.820Z,19.98
2022-11-04T04:50:28.165Z,19.25
2022-11-04T04:52:58.826Z,18.27
2022-11-04T04:55:28.768Z,15.27
2022-11-04T04:57:58.744Z,17.05
2022-11-04T05:00:28.796Z,15.75
2022-11-04T05:02:58.712Z,17.48
2022-11-04T05:05:28.697Z,16.98
2022-11-04T05:07:58.657Z,18.85
2022-11-04T05:10:28.650Z,19.48
2022-11-04T05:13:16.820Z,19.88
2022-11-04T05:15:46.888Z,15.48
2022-11-04T05:18:16.921Z,13.95
2022-11-04T05:20:47.019Z,12.02
2022-11-04T05:23:17.207Z,12.68
2022-11-04T05:25:47.221Z,12.13
2022-11-04T05:28:17.430Z,9.82
2022-11-04T05:30:47.469Z,10.13
2022-11-04T05:33:17.467Z,8.85
2022-11-04T05:35:47.614Z,11.15
2022-11-04T05:38:18.325Z,13.80
2022-11-04T05:40:48.292Z,16.98
2022-11-04T05:43:18.290Z,22.08
2022-11-04T05:45:48.255Z,20.80
2022-11-04T05:48:18.217Z,20.85
2022-11-04T05:50:48.258Z,19.38
2022-11-04T05:53:18.323Z,17.13
2022-11-04T05:55:48.446Z,15.27
2022-11-04T05:58:18.654Z,16.38
2022-11-04T06:00:48.766Z,13.65
2022-11-04T06:03:18.755Z,11.80
2022-11-04T06:05:48.777Z,10.82
2022-11-04T06:08:18.761Z,13.02
2022-11-04T06:10:49.491Z,10.45
2022-11-04T06:13:19.423Z,12.10
2022-11-04T06:15:49.403Z,10.70
2022-11-04T06:18:19.367Z,12.38
2022-11-04T06:20:49.386Z,12.30
2022-11-04T06:23:19.372Z,10.30
2022-11-04T06:25:49.394Z,8.73
2022-11-04T06:28:19.637Z,6.53
2022-11-04T06:30:49.682Z,5.82
2022-11-04T06:33:19.609Z,5.78
2022-11-04T06:35:49.628Z,5.07
2022-11-04T06:38:20.955Z,5.13
2022-11-04T06:40:51.119Z,4.68
2022-11-04T06:43:21.228Z,4.55
2022-11-04T06:45:57.625Z,4.53
2022-11-04T06:48:28.240Z,4.80
2022-11-04T06:50:59.918Z,3.83
2022-11-04T06:53:31.176Z,4.28
2022-11-04T06:56:05.379Z,3.85
2022-11-04T06:58:35.708Z,3.90
2022-11-04T07:01:11.260Z,4.28
2022-11-04T07:03:43.649Z,3.70
2022-11-04T07:06:13.952Z,3.80
2022-11-04T07:08:44.636Z,3.95
2022-11-04T07:11:15.257Z,3.78
2022-11-04T07:13:45.351Z,3.25
2022-11-04T07:16:15.466Z,3.88
2022-11-04T07:18:45.758Z,4.05
2022-11-04T07:21:15.723Z,4.25
2022-11-04T07:23:45.727Z,5.10
2022-11-04T07:26:15.828Z,4.72
2022-11-04T07:28:46.091Z,4.25
2022-11-04T07:31:16.388Z,4.85
2022-11-04T07:33:51.071Z,5.20
2022-11-04T07:36:21.311Z,5.20
2022-11-04T07:38:52.308Z,4.88
2022-11-04T07:41:22.868Z,5.35
2022-11-04T07:43:53.556Z,6.22
2022-11-04T07:46:23.677Z,6.13
2022-11-04T07:48:53.937Z,4.78
2022-11-04T07:51:24.528Z,6.18
2022-11-04T07:53:55.037Z,5.57
2022-11-04T07:56:25.338Z,5.45
2022-11-04T07:58:55.669Z,5.38
2022-11-04T08:01:26.836Z,7.13
2022-11-04T08:03:57.004Z,5.63
2022-11-04T08:06:27.069Z,5.43
2022-11-04T08:08:57.590Z,5.68
2022-11-04T08:11:29.681Z,4.90
2022-11-04T08:13:59.757Z,4.72
2022-11-04T08:16:34.112Z,4.38
2022-11-04T08:19:04.900Z,5.18
2022-11-04T08:21:35.779Z,4.70
2022-11-04T08:24:07.174Z,4.95
2022-11-04T08:26:37.225Z,4.90
2022-11-04T08:29:10.690Z,4.20
2022-11-04T08:31:41.714Z,4.18
2022-11-04T08:34:11.933Z,4.55
2022-11-04T08:36:42.324Z,3.55
2022-11-04T08:39:13.366Z,3.97
2022-11-04T08:41:46.660Z,3.53
2022-11-04T08:44:17.606Z,2.90
2022-11-04T08:46:48.198Z,4.15
2022-11-04T08:49:21.338Z,4.10
2022-11-04T08:51:57.639Z,3.50
2022-11-04T08:54:28.031Z,3.50
2022-11-04T08:56:58.040Z,3.55
2022-11-04T08:59:28.162Z,3.47
2022-11-04T09:01:58.806Z,4.95
2022-11-04T09:04:29.184Z,4.78
2022-11-04T09:06:59.327Z,4.07
2022-11-04T09:09:31.112Z,3.22
2022-11-04T09:12:01.137Z,3.70
2022-11-04T09:14:31.157Z,3.50
2022-11-04T09:17:01.704Z,3.70
2022-11-04T09:19:31.986Z,3.97
2022-11-04T09:22:02.537Z,3.85
2022-11-04T09:24:33.194Z,3.10
2022-11-04T09:27:03.421Z,4.13
2022-11-04T09:29:35.057Z,3.80
2022-11-04T09:32:06.194Z,3.42
2022-11-04T09:34:36.491Z,4.85
2022-11-04T09:37:07.069Z,3.72
2022-11-04T09:39:37.452Z,3.50
2022-11-04T09:42:34.737Z,4.10
2022-11-04T09:45:21.277Z,3.67
2022-11-04T09:47:52.784Z,3.42
2022-11-04T09:50:27.486Z,2.78
2022-11-04T09:53:04.201Z,3.05
2022-11-04T09:55:42.862Z,3.25
2022-11-04T09:58:14.192Z,3.97
2022-11-04T10:00:46.428Z,3.05
2022-11-04T10:03:23.341Z,3.85
2022-11-04T10:05:59.950Z,3.33
2022-11-04T10:08:42.110Z,4.50
2022-11-04T10:11:19.501Z,5.68
2022-11-04T10:13:55.769Z,5.72
2022-11-04T10:16:31.463Z,7.18
2022-11-04T10:19:14.025Z,6.93
2022-11-04T10:21:49.391Z,7.20
2022-11-04T10:24:26.484Z,8.40
2022-11-04T10:29:38.718Z,8.27
2022-11-04T10:32:28.835Z,8.05
2022-11-04T10:35:06.914Z,9.60
2022-11-04T10:37:36.940Z,9.35
2022-11-04T10:40:22.357Z,10.60
2022-11-04T10:42:52.922Z,10.05
2022-11-04T10:45:26.298Z,11.00
2022-11-04T10:47:58.953Z,10.38
2022-11-04T10:50:32.034Z,11.80
2022-11-04T10:53:11.780Z,11.55
2022-11-04T10:55:57.289Z,13.77
2022-11-04T10:58:28.127Z,14.02
2022-11-04T11:00:59.090Z,14.30
2022-11-04T11:03:36.069Z,14.13
2022-11-04T11:06:13.974Z,14.35
2022-11-04T11:08:44.027Z,14.48
2022-11-04T11:11:14.191Z,14.02
2022-11-04T11:13:45.044Z,14.60
2022-11-04T11:16:22.006Z,14.32
2022-11-04T11:21:25.121Z,14.05
2022-11-04T11:23:58.594Z,13.07
2022-11-04T11:26:32.576Z,13.27
2022-11-04T11:29:03.619Z,12.50
2022-11-04T11:31:40.346Z,13.50
2022-11-04T11:34:30.587Z,13.52
2022-11-04T11:37:00.782Z,14.95
2022-11-04T11:39:31.437Z,17.27
2022-11-04T11:42:07.873Z,17.73
2022-11-04T11:44:47.903Z,19.42
2022-11-04T11:47:30.084Z,21.65
2022-11-04T11:50:15.606Z,21.35
2022-11-04T11:52:46.371Z,25.65
2022-11-04T11:55:19.366Z,34.80
2022-11-04T12:01:06.612Z,66.22
2022-11-04T12:09:57.665Z,79.05
2022-11-04T12:12:40.303Z,67.13
2022-11-04T12:15:10.436Z,72.78
2022-11-04T12:17:46.851Z,74.50
2022-11-04T12:20:35.302Z,66.97
2022-11-04T12:23:11.839Z,63.67
2022-11-04T12:26:02.969Z,61.03
2022-11-04T12:28:38.911Z,58.90
2022-11-04T12:31:27.846Z,61.83
2022-11-04T12:34:02.255Z,60.25
2022-11-04T12:36:44.151Z,51.45
2022-11-04T12:39:21.055Z,41.97
2022-11-04T12:44:49.887Z,40.97
2022-11-04T12:47:38.250Z,37.47
2022-11-04T12:50:11.412Z,35.75
2022-11-04T12:53:02.958Z,35.95
2022-11-04T12:55:33.215Z,32.97
2022-11-04T12:58:17.246Z,35.28
2022-11-04T13:00:47.607Z,34.78
2022-11-04T13:03:17.747Z,30.85
2022-11-04T13:06:18.092Z,33.47
2022-11-04T13:09:14.643Z,34.95
2022-11-04T13:11:53.038Z,34.33
2022-11-04T13:14:30.660Z,37.10
2022-11-04T13:17:02.812Z,37.50
2022-11-04T13:19:37.111Z,36.40
2022-11-04T13:22:20.907Z,38.20
2022-11-04T13:25:12.292Z,40.67
2022-11-04T13:27:46.054Z,36.42
2022-11-04T13:32:55.409Z,34.63
2022-11-04T13:35:52.396Z,38.25
2022-11-04T13:38:26.419Z,40.17
2022-11-04T13:41:11.239Z,36.65
2022-11-04T13:43:48.742Z,39.85
2022-11-04T13:46:20.490Z,39.92
2022-11-04T13:49:11.620Z,42.60
2022-11-04T13:51:52.465Z,42.45
2022-11-04T13:54:26.024Z,43.88
2022-11-04T13:57:17.915Z,45.85
2022-11-04T14:00:08.812Z,45.25
2022-11-04T14:02:44.080Z,41.60
2022-11-04T14:05:34.309Z,42.95
2022-11-04T14:08:06.718Z,44.85
2022-11-04T14:10:41.283Z,44.60
2022-11-04T14:13:45.437Z,50.38
2022-11-04T14:16:22.339Z,50.70
2022-11-04T14:21:39.620Z,24.55
2022-11-04T14:24:17.083Z,22.42
2022-11-04T14:26:48.161Z,18.02
2022-11-04T14:29:20.039Z,17.55
2022-11-04T14:31:52.024Z,16.88
2022-11-04T14:34:29.704Z,19.15
2022-11-04T14:37:00.943Z,20.30
2022-11-04T14:39:35.651Z,20.20
2022-11-04T14:42:08.841Z,19.60
2022-11-04T14:44:50.613Z,21.00
2022-11-04T14:47:28.257Z,26.50
2022-11-04T14:50:02.800Z,31.48
2022-11-04T14:52:35.095Z,29.60
2022-11-04T14:55:07.213Z,24.85
2022-11-04T14:57:41.121Z,28.35
2022-11-04T15:00:30.311Z,25.92
2022-11-04T15:03:45.552Z,26.80
2022-11-04T15:06:08.419Z,24.90
2022-11-04T15:08:57.424Z,23.40
2022-11-04T15:11:47.677Z,23.75
2022-11-04T15:14:26.092Z,23.50
2022-11-04T15:16:57.841Z,26.63
2022-11-04T15:19:33.051Z,24.08
2022-11-04T15:22:04.274Z,24.33
2022-11-04T15:24:35.287Z,25.30
2022-11-04T15:27:07.328Z,23.50
2022-11-04T15:29:39.117Z,26.63
2022-11-04T15:32:10.160Z,30.55
2022-11-04T15:34:40.477Z,26.33
2022-11-04T15:37:14.253Z,23.95
2022-11-04T15:39:48.242Z,21.65
2022-11-04T15:42:45.929Z,20.13
2022-11-04T15:45:25.481Z,19.23
2022-11-04T15:48:15.221Z,21.88
2022-11-04T15:50:46.219Z,21.35
2022-11-04T15:53:16.762Z,20.25
2022-11-04T15:55:47.105Z,23.42
2022-11-04T15:58:17.978Z,23.75
2022-11-04T16:00:55.712Z,26.17
2022-11-04T16:03:27.608Z,28.52
2022-11-04T16:06:05.290Z,28.70
2022-11-04T16:08:36.820Z,29.67
2022-11-04T16:11:14.550Z,29.83
2022-11-04T16:13:45.208Z,29.75
2022-11-04T16:16:27.803Z,28.95
2022-11-04T16:19:02.243Z,32.13
2022-11-04T16:21:33.288Z,33.25
2022-11-04T16:24:18.312Z,32.42
2022-11-04T16:26:49.391Z,32.80
2022-11-04T16:29:25.694Z,35.60
2022-11-04T16:32:14.364Z,29.75
2022-11-04T16:34:45.905Z,24.48
2022-11-04T16:37:16.630Z,21.98
2022-11-04T16:39:47.832Z,20.80
2022-11-04T16:42:19.273Z,18.23
2022-11-04T16:44:50.865Z,18.25
2022-11-04T16:47:21.940Z,18.20
2022-11-04T16:49:53.187Z,17.25
2022-11-04T16:52:27.946Z,17.48
2022-11-04T16:54:58.908Z,16.13
2022-11-04T16:57:29.459Z,15.70
2022-11-04T16:59:59.969Z,16.92
2022-11-04T17:02:38.862Z,17.58
2022-11-04T17:05:13.845Z,18.40
2022-11-04T17:07:54.286Z,17.58
2022-11-04T17:10:28.751Z,18.02
2022-11-04T17:12:59.248Z,18.80
2022-11-04T17:15:30.530Z,17.05
2022-11-04T17:18:01.467Z,27.00
2022-11-04T17:20:33.249Z,33.03
2022-11-04T17:23:03.546Z,31.30
2022-11-04T17:25:33.756Z,24.30
2022-11-04T17:28:03.895Z,18.40
2022-11-04T17:30:34.384Z,17.73
2022-11-04T17:33:08.177Z,16.92
2022-11-04T17:35:42.972Z,15.43
2022-11-04T17:38:13.347Z,12.88
2022-11-04T17:41:01.379Z,16.13
2022-11-04T17:44:00.446Z,14.48
2022-11-04T17:46:39.457Z,16.85
2022-11-04T17:49:12.743Z,15.82
2022-11-04T17:51:43.835Z,15.15
2022-11-04T17:54:13.967Z,15.73
2022-11-04T17:56:44.241Z,15.95
2022-11-04T17:59:15.770Z,14.15
2022-11-04T18:01:46.798Z,14.20
2022-11-04T18:04:18.498Z,13.98
2022-11-04T18:06:49.555Z,14.85
2022-11-04T18:09:20.373Z,14.55
2022-11-04T18:12:09.865Z,14.98
2022-11-04T18:14:40.586Z,14.18
2022-11-04T18:17:11.395Z,13.73
2022-11-04T18:19:41.537Z,12.65
2022-11-04T18:22:12.390Z,12.45
2022-11-04T18:24:43.083Z,13.55
2022-11-04T18:27:13.787Z,13.32
2022-11-04T18:29:43.925Z,14.30
2022-11-04T18:32:14.718Z,13.70
2022-11-04T18:34:44.873Z,12.27
2022-11-04T18:37:15.059Z,11.35
2022-11-04T18:39:45.188Z,11.50
2022-11-04T18:42:16.609Z,11.55
2022-11-04T18:44:47.433Z,12.07
2022-11-04T18:47:17.864Z,12.80
2022-11-04T18:49:49.141Z,11.80
2022-11-04T18:52:23.629Z,11.90
2022-11-04T18:54:54.074Z,13.52
2022-11-04T18:57:25.019Z,13.48
2022-11-04T18:59:55.886Z,13.00
2022-11-04T19:02:26.971Z,13.00
2022-11-04T19:04:57.573Z,14.25
2022-11-04T19:07:31.753Z,12.95
2022-11-04T19:10:01.899Z,13.32
2022-11-04T19:12:50.285Z,14.13
2022-11-04T19:15:21.758Z,14.18
2022-11-04T19:17:51.943Z,11.70
2022-11-04T19:20:22.261Z,11.73
2022-11-04T19:22:52.304Z,12.05
2022-11-04T19:25:22.573Z,11.75
2022-11-04T19:28:18.596Z,10.15
2022-11-04T19:30:43.892Z,8.88
2022-11-04T19:33:13.856Z,10.35
2022-11-04T19:35:44.399Z,9.75
2022-11-04T19:38:15.483Z,10.35
2022-11-04T19:40:51.963Z,10.50
2022-11-04T19:43:24.264Z,9.32
2022-11-04T19:45:57.766Z,11.25
2022-11-04T19:48:32.956Z,8.88
2022-11-04T19:51:03.318Z,9.15
2022-11-04T19:53:33.487Z,9.30
2022-11-04T19:56:03.583Z,10.23
2022-11-04T19:58:33.748Z,9.90
2022-11-04T20:01:08.311Z,8.45
2022-11-04T20:03:39.783Z,9.05
2022-11-04T20:06:12.326Z,8.23
2022-11-04T20:08:43.025Z,9.75
2022-11-04T20:11:13.197Z,9.95
2022-11-04T20:13:47.794Z,9.80
2022-11-04T20:16:25.410Z,10.45
2022-11-04T20:18:58.030Z,8.80
2022-11-04T20:21:29.487Z,9.65
2022-11-04T20:24:01.442Z,8.52
2022-11-04T20:26:31.695Z,9.38
2022-11-04T20:29:02.160Z,8.65
2022-11-04T20:31:32.854Z,10.57
2022-11-04T20:34:07.289Z,11.45
2022-11-04T20:36:37.857Z,11.27
2022-11-04T20:39:12.816Z,9.60
2022-11-04T20:41:43.100Z,9.02
2022-11-04T20:44:14.832Z,10.35
2022-11-04T20:46:45.540Z,10.98
2022-11-04T20:49:15.933Z,9.20
2022-11-04T20:51:51.674Z,10.25
2022-11-04T20:54:25.942Z,8.45
2022-11-04T20:56:56.172Z,9.07
2022-11-04T20:59:26.559Z,9.75
2022-11-04T21:01:57.795Z,9.13
2022-11-04T21:04:33.223Z,9.80
2022-11-04T21:07:08.013Z,8.52
2022-11-04T21:09:38.128Z,9.63
2022-11-04T21:12:08.414Z,8.80
2022-11-04T21:14:39.059Z,9.77
2022-11-04T21:17:09.197Z,8.63
2022-11-04T21:19:39.505Z,9.40
2022-11-04T21:22:09.692Z,8.25
2022-11-04T21:24:39.811Z,8.68
2022-11-04T21:27:09.946Z,7.65
2022-11-04T21:29:40.434Z,8.32
2022-11-04T21:32:10.519Z,9.20
2022-11-04T21:34:40.604Z,9.07
2022-11-04T21:37:10.661Z,9.32
2022-11-04T21:39:40.994Z,9.98
2022-11-04T21:42:11.619Z,11.40
2022-11-04T21:44:41.779Z,10.52
2022-11-04T21:47:11.856Z,9.68
2022-11-04T21:49:41.993Z,11.20
2022-11-04T21:52:12.394Z,9.05
2022-11-04T21:54:42.483Z,8.30
2022-11-04T21:57:12.645Z,11.52
2022-11-04T21:59:42.744Z,8.88
2022-11-04T22:02:13.073Z,9.38
2022-11-04T22:04:43.651Z,9.77
2022-11-04T22:07:13.739Z,10.02
2022-11-04T22:09:43.845Z,9.98
2022-11-04T22:12:14.223Z,8.50
2022-11-04T22:14:44.663Z,9.77
2022-11-04T22:17:14.890Z,10.18
2022-11-04T22:19:44.953Z,9.43
2022-11-04T22:22:15.165Z,8.82
2022-11-04T22:24:45.351Z,9.27
2022-11-04T22:27:15.849Z,8.35
2022-11-04T22:29:46.058Z,8.60
2022-11-04T22:32:16.369Z,8.30
2022-11-04T22:34:46.792Z,7.85
2022-11-04T22:37:16.996Z,8.27
2022-11-04T22:39:47.498Z,8.52
2022-11-04T22:42:17.753Z,7.40
2022-11-04T22:44:47.863Z,7.47
2022-11-04T22:47:17.930Z,7.70
2022-11-04T22:49:47.971Z,8.30
2022-11-04T22:52:18.031Z,7.30
2022-11-04T22:54:48.126Z,6.75
2022-11-04T22:57:18.188Z,7.05
2022-11-04T22:59:48.416Z,6.97
2022-11-04T23:02:19.195Z,7.50
2022-11-04T23:04:49.872Z,7.00
2022-11-04T23:07:20.117Z,7.82
2022-11-04T23:10:08.372Z,8.25
2022-11-04T23:12:56.892Z,7.32
2022-11-04T23:15:45.250Z,8.30
2022-11-04T23:18:33.685Z,7.55
2022-11-04T23:21:21.976Z,7.43
2022-11-04T23:24:10.682Z,7.28
2022-11-04T23:26:40.738Z,7.10
2022-11-04T23:29:29.188Z,8.70
2022-11-04T23:31:59.188Z,7.47
2022-11-04T23:34:47.816Z,8.00
2022-11-04T23:37:18.194Z,7.88
2022-11-04T23:39:49.292Z,7.78
2022-11-04T23:42:20.837Z,8.55
2022-11-04T23:45:15.018Z,8.43
2022-11-04T23:48:04.251Z,7.65
2022-11-04T23:50:53.177Z,6.95
2022-11-04T23:53:41.930Z,8.02
2022-11-04T23:56:30.797Z,8.05
2022-11-04T23:59:19.089Z,8.88
